Memphis (MEM/KMEM)

Information

Location
Memphis, TN
Local Time
20:00 / 8:00 pm
GMT Time
01:00 / 1:00 am
Gates
C22
No FAA reported delays
METAR KMEM 240054Z 03008KT 10SM BKN240 24/17 A2998 RMK AO2 SLP148 T02440172
TAF KMEM 232330Z 2400/2424 03009KT P6SM SCT050 FM240300 04005KT P6SM SKC FM241500 05009KT P6SM SKC